sensor_id;sensor_type;location;lat;lon;timestamp;pressure;altitude;pressure_sealevel;temperature
63113;BMP280;49206;48.020;21.378;2022-08-30T00:08:29;100775.63;;;19.32
63113;BMP280;49206;48.020;21.378;2022-08-30T00:18:33;100785.59;;;19.14
63113;BMP280;49206;48.020;21.378;2022-08-30T00:28:37;100792.13;;;19.13
63113;BMP280;49206;48.020;21.378;2022-08-30T00:38:40;100794.81;;;18.95
63113;BMP280;49206;48.020;21.378;2022-08-30T00:48:44;100804.78;;;19.12
63113;BMP280;49206;48.020;21.378;2022-08-30T00:58:52;100794.44;;;19.07
63113;BMP280;49206;48.020;21.378;2022-08-30T01:08:56;100786.38;;;19.00
63113;BMP280;49206;48.020;21.378;2022-08-30T01:18:59;100784.50;;;19.04
63113;BMP280;49206;48.020;21.378;2022-08-30T01:29:06;100782.53;;;19.01
63113;BMP280;49206;48.020;21.378;2022-08-30T01:39:15;100777.97;;;19.19
63113;BMP280;49206;48.020;21.378;2022-08-30T01:49:18;100784.84;;;19.41
63113;BMP280;49206;48.020;21.378;2022-08-30T01:59:28;100792.47;;;19.46
63113;BMP280;49206;48.020;21.378;2022-08-30T02:09:31;100782.16;;;19.38
63113;BMP280;49206;48.020;21.378;2022-08-30T02:19:34;100777.56;;;19.38
63113;BMP280;49206;48.020;21.378;2022-08-30T02:29:37;100772.97;;;19.32
63113;BMP280;49206;48.020;21.378;2022-08-30T02:39:40;100773.75;;;19.39
63113;BMP280;49206;48.020;21.378;2022-08-30T02:49:43;100772.16;;;19.52
63113;BMP280;49206;48.020;21.378;2022-08-30T02:59:46;100764.91;;;19.56
63113;BMP280;49206;48.020;21.378;2022-08-30T03:10:04;100773.28;;;19.65
63113;BMP280;49206;48.020;21.378;2022-08-30T03:20:17;100778.63;;;19.65
63113;BMP280;49206;48.020;21.378;2022-08-30T03:30:21;100774.88;;;19.56
63113;BMP280;49206;48.020;21.378;2022-08-30T03:40:35;100771.44;;;19.41
63113;BMP280;49206;48.020;21.378;2022-08-30T04:02:17;100773.00;;;19.21
63113;BMP280;49206;48.020;21.378;2022-08-30T04:12:20;100769.53;;;19.31
63113;BMP280;49206;48.020;21.378;2022-08-30T04:22:23;100775.63;;;19.49
63113;BMP280;49206;48.020;21.378;2022-08-30T04:32:26;100793.66;;;19.24
63113;BMP280;49206;48.020;21.378;2022-08-30T04:42:31;100804.38;;;19.42
63113;BMP280;49206;48.020;21.378;2022-08-30T05:14:20;100829.06;;;20.12
63113;BMP280;49206;48.020;21.378;2022-08-30T05:25:30;100844.50;;;20.69
63113;BMP280;49206;48.020;21.378;2022-08-30T05:36:19;100853.16;;;20.94
63113;BMP280;49206;48.020;21.378;2022-08-30T05:46:58;100866.69;;;21.31
63113;BMP280;49206;48.020;21.378;2022-08-30T05:57:17;100873.53;;;21.76
63113;BMP280;49206;48.020;21.378;2022-08-30T06:07:43;100878.47;;;22.44
63113;BMP280;49206;48.020;21.378;2022-08-30T06:17:48;100876.41;;;22.81
63113;BMP280;49206;48.020;21.378;2022-08-30T06:28:05;100890.91;;;23.36
63113;BMP280;49206;48.020;21.378;2022-08-30T06:38:08;100881.78;;;23.69
63113;BMP280;49206;48.020;21.378;2022-08-30T06:48:36;100865.44;;;24.15
63113;BMP280;49206;48.020;21.378;2022-08-30T06:58:40;100874.19;;;25.02
63113;BMP280;49206;48.020;21.378;2022-08-30T07:08:43;100878.88;;;25.30
63113;BMP280;49206;48.020;21.378;2022-08-30T07:18:45;100880.94;;;25.38
63113;BMP280;49206;48.020;21.378;2022-08-30T07:28:57;100882.59;;;25.48
63113;BMP280;49206;48.020;21.378;2022-08-30T07:38:59;100881.00;;;26.41
63113;BMP280;49206;48.020;21.378;2022-08-30T07:49:02;100881.91;;;26.97
63113;BMP280;49206;48.020;21.378;2022-08-30T07:59:05;100879.72;;;26.58
63113;BMP280;49206;48.020;21.378;2022-08-30T08:09:08;100892.34;;;28.32
63113;BMP280;49206;48.020;21.378;2022-08-30T08:19:10;100887.84;;;28.29
63113;BMP280;49206;48.020;21.378;2022-08-30T08:29:13;100893.84;;;28.24
63113;BMP280;49206;48.020;21.378;2022-08-30T08:39:16;100901.78;;;29.47
63113;BMP280;49206;48.020;21.378;2022-08-30T08:49:19;100901.00;;;29.56
63113;BMP280;49206;48.020;21.378;2022-08-30T08:59:22;100896.47;;;29.94
63113;BMP280;49206;48.020;21.378;2022-08-30T09:09:28;100887.03;;;30.36
63113;BMP280;49206;48.020;21.378;2022-08-30T09:19:36;100874.00;;;30.08
63113;BMP280;49206;48.020;21.378;2022-08-30T09:29:49;100875.19;;;30.77
63113;BMP280;49206;48.020;21.378;2022-08-30T09:39:54;100869.72;;;30.91
63113;BMP280;49206;48.020;21.378;2022-08-30T09:50:17;100861.28;;;32.41
63113;BMP280;49206;48.020;21.378;2022-08-30T10:00:21;100852.31;;;32.60
63113;BMP280;49206;48.020;21.378;2022-08-30T11:12:29;100798.41;;;33.86
63113;BMP280;49206;48.020;21.378;2022-08-30T11:22:35;100783.16;;;32.91
63113;BMP280;49206;48.020;21.378;2022-08-30T11:53:54;100752.88;;;33.47
63113;BMP280;49206;48.020;21.378;2022-08-30T12:14:43;100735.66;;;34.10
63113;BMP280;49206;48.020;21.378;2022-08-30T12:24:51;100721.69;;;34.24
63113;BMP280;49206;48.020;21.378;2022-08-30T12:35:00;100710.19;;;34.47
63113;BMP280;49206;48.020;21.378;2022-08-30T12:45:10;100699.56;;;33.00
63113;BMP280;49206;48.020;21.378;2022-08-30T12:55:21;100688.50;;;34.27
63113;BMP280;49206;48.020;21.378;2022-08-30T13:15:47;100668.41;;;33.56
63113;BMP280;49206;48.020;21.378;2022-08-30T13:25:50;100674.63;;;33.51
63113;BMP280;49206;48.020;21.378;2022-08-30T13:35:52;100667.44;;;33.48
63113;BMP280;49206;48.020;21.378;2022-08-30T13:45:55;100670.16;;;33.43
63113;BMP280;49206;48.020;21.378;2022-08-30T13:56:00;100659.91;;;33.43
63113;BMP280;49206;48.020;21.378;2022-08-30T14:06:03;100654.56;;;33.12
63113;BMP280;49206;48.020;21.378;2022-08-30T14:16:26;100636.19;;;33.18
63113;BMP280;49206;48.020;21.378;2022-08-30T14:26:33;100625.25;;;32.82
63113;BMP280;49206;48.020;21.378;2022-08-30T14:36:38;100619.63;;;32.55
63113;BMP280;49206;48.020;21.378;2022-08-30T14:46:42;100621.44;;;32.32
63113;BMP280;49206;48.020;21.378;2022-08-30T14:56:44;100611.53;;;31.84
63113;BMP280;49206;48.020;21.378;2022-08-30T15:06:48;100610.72;;;31.53
63113;BMP280;49206;48.020;21.378;2022-08-30T15:16:52;100601.94;;;31.24
63113;BMP280;49206;48.020;21.378;2022-08-30T15:26:56;100588.00;;;31.22
63113;BMP280;49206;48.020;21.378;2022-08-30T15:37:01;100586.88;;;30.60
63113;BMP280;49206;48.020;21.378;2022-08-30T15:47:03;100590.78;;;30.24
63113;BMP280;49206;48.020;21.378;2022-08-30T15:57:06;100606.59;;;29.68
63113;BMP280;49206;48.020;21.378;2022-08-30T16:07:09;100601.19;;;29.22
63113;BMP280;49206;48.020;21.378;2022-08-30T16:17:11;100602.41;;;28.47
63113;BMP280;49206;48.020;21.378;2022-08-30T16:27:14;100607.41;;;27.86
63113;BMP280;49206;48.020;21.378;2022-08-30T16:37:17;100612.41;;;27.21
63113;BMP280;49206;48.020;21.378;2022-08-30T16:47:22;100627.03;;;26.42
63113;BMP280;49206;48.020;21.378;2022-08-30T16:57:27;100635.56;;;25.98
63113;BMP280;49206;48.020;21.378;2022-08-30T17:07:29;100644.41;;;25.52
63113;BMP280;49206;48.020;21.378;2022-08-30T17:17:32;100651.94;;;25.32
63113;BMP280;49206;48.020;21.378;2022-08-30T17:27:45;100664.56;;;24.98
63113;BMP280;49206;48.020;21.378;2022-08-30T17:48:26;100671.69;;;24.51
63113;BMP280;49206;48.020;21.378;2022-08-30T17:58:29;100681.38;;;24.32
63113;BMP280;49206;48.020;21.378;2022-08-30T18:08:31;100689.69;;;24.10
63113;BMP280;49206;48.020;21.378;2022-08-30T18:18:35;100690.94;;;23.89
63113;BMP280;49206;48.020;21.378;2022-08-30T18:28:39;100710.16;;;23.75
63113;BMP280;49206;48.020;21.378;2022-08-30T18:38:44;100718.56;;;23.61
63113;BMP280;49206;48.020;21.378;2022-08-30T18:48:59;100719.97;;;23.30
63113;BMP280;49206;48.020;21.378;2022-08-30T18:59:09;100734.47;;;23.17
63113;BMP280;49206;48.020;21.378;2022-08-30T19:09:16;100733.47;;;23.11
63113;BMP280;49206;48.020;21.378;2022-08-30T19:30:26;100717.19;;;22.95
63113;BMP280;49206;48.020;21.378;2022-08-30T19:40:58;100710.88;;;22.82
63113;BMP280;49206;48.020;21.378;2022-08-30T19:51:21;100718.41;;;22.71
63113;BMP280;49206;48.020;21.378;2022-08-30T20:13:06;100703.56;;;22.37
63113;BMP280;49206;48.020;21.378;2022-08-30T20:34:21;100718.09;;;22.17
63113;BMP280;49206;48.020;21.378;2022-08-30T20:44:32;100715.09;;;22.15
63113;BMP280;49206;48.020;21.378;2022-08-30T20:54:37;100718.16;;;22.13
63113;BMP280;49206;48.020;21.378;2022-08-30T21:04:44;100730.91;;;22.09
63113;BMP280;49206;48.020;21.378;2022-08-30T21:15:35;100727.00;;;21.87
63113;BMP280;49206;48.020;21.378;2022-08-30T21:25:42;100740.00;;;21.92
63113;BMP280;49206;48.020;21.378;2022-08-30T21:46:54;100745.97;;;21.77
63113;BMP280;49206;48.020;21.378;2022-08-30T21:57:00;100732.50;;;21.77
63113;BMP280;49206;48.020;21.378;2022-08-30T22:17:42;100726.97;;;21.61
63113;BMP280;49206;48.020;21.378;2022-08-30T22:27:46;100708.03;;;21.68
63113;BMP280;49206;48.020;21.378;2022-08-30T22:37:49;100719.94;;;21.70
63113;BMP280;49206;48.020;21.378;2022-08-30T22:48:00;100706.84;;;21.72
63113;BMP280;49206;48.020;21.378;2022-08-30T22:58:07;100685.75;;;21.67
63113;BMP280;49206;48.020;21.378;2022-08-30T23:08:18;100695.94;;;21.53
63113;BMP280;49206;48.020;21.378;2022-08-30T23:18:21;100688.78;;;21.43
63113;BMP280;49206;48.020;21.378;2022-08-30T23:28:23;100681.50;;;21.40
63113;BMP280;49206;48.020;21.378;2022-08-30T23:38:44;100681.72;;;21.23
63113;BMP280;49206;48.020;21.378;2022-08-30T23:49:06;100679.66;;;21.00
63113;BMP280;49206;48.020;21.378;2022-08-30T23:59:27;100675.81;;;20.98
